sensor_id;sensor_type;location;lat;lon;timestamp;temperature;humidity
25024;DHT22;13033;50.936;5.334;2023-03-03T00:00:13;2.80;99.90
25024;DHT22;13033;50.936;5.334;2023-03-03T00:02:39;2.80;99.90
25024;DHT22;13033;50.936;5.334;2023-03-03T00:05:05;2.80;99.90
25024;DHT22;13033;50.936;5.334;2023-03-03T00:07:31;2.80;99.90
25024;DHT22;13033;50.936;5.334;2023-03-03T00:09:57;2.80;99.90
25024;DHT22;13033;50.936;5.334;2023-03-03T00:12:26;2.80;99.90
25024;DHT22;13033;50.936;5.334;2023-03-03T00:14:52;2.80;99.90
25024;DHT22;13033;50.936;5.334;2023-03-03T00:17:26;2.70;99.90
25024;DHT22;13033;50.936;5.334;2023-03-03T00:19:53;2.80;99.90
25024;DHT22;13033;50.936;5.334;2023-03-03T00:22:29;2.70;99.90
25024;DHT22;13033;50.936;5.334;2023-03-03T00:27:43;2.70;99.90
25024;DHT22;13033;50.936;5.334;2023-03-03T00:30:23;2.60;99.90
25024;DHT22;13033;50.936;5.334;2023-03-03T00:32:50;2.50;99.90
25024;DHT22;13033;50.936;5.334;2023-03-03T00:37:56;2.50;99.90
25024;DHT22;13033;50.936;5.334;2023-03-03T00:40:24;2.60;99.90
25024;DHT22;13033;50.936;5.334;2023-03-03T00:42:55;2.60;99.90
25024;DHT22;13033;50.936;5.334;2023-03-03T00:48:28;2.50;99.90
25024;DHT22;13033;50.936;5.334;2023-03-03T00:50:59;2.50;99.90
25024;DHT22;13033;50.936;5.334;2023-03-03T00:53:27;2.40;99.90
25024;DHT22;13033;50.936;5.334;2023-03-03T00:55:54;2.30;99.90
25024;DHT22;13033;50.936;5.334;2023-03-03T00:58:21;2.30;99.90
25024;DHT22;13033;50.936;5.334;2023-03-03T01:00:52;2.30;99.90
25024;DHT22;13033;50.936;5.334;2023-03-03T01:03:20;2.30;99.90
25024;DHT22;13033;50.936;5.334;2023-03-03T01:05:46;2.30;99.90
25024;DHT22;13033;50.936;5.334;2023-03-03T01:08:12;2.20;99.90
25024;DHT22;13033;50.936;5.334;2023-03-03T01:10:45;2.30;99.90
25024;DHT22;13033;50.936;5.334;2023-03-03T01:13:13;2.30;99.90
25024;DHT22;13033;50.936;5.334;2023-03-03T01:15:39;2.30;99.90
25024;DHT22;13033;50.936;5.334;2023-03-03T01:18:06;2.30;99.90
25024;DHT22;13033;50.936;5.334;2023-03-03T01:20:31;2.30;99.90
25024;DHT22;13033;50.936;5.334;2023-03-03T01:22:57;2.30;99.90
25024;DHT22;13033;50.936;5.334;2023-03-03T01:25:23;2.20;99.90
25024;DHT22;13033;50.936;5.334;2023-03-03T01:27:48;2.30;99.90
25024;DHT22;13033;50.936;5.334;2023-03-03T01:30:14;2.40;99.90
25024;DHT22;13033;50.936;5.334;2023-03-03T01:32:41;2.40;99.90
25024;DHT22;13033;50.936;5.334;2023-03-03T01:35:07;2.40;99.90
25024;DHT22;13033;50.936;5.334;2023-03-03T01:37:34;2.60;99.90
25024;DHT22;13033;50.936;5.334;2023-03-03T01:40:01;2.70;99.90
25024;DHT22;13033;50.936;5.334;2023-03-03T01:42:26;2.80;99.90
25024;DHT22;13033;50.936;5.334;2023-03-03T01:45:16;2.90;99.90
25024;DHT22;13033;50.936;5.334;2023-03-03T01:47:52;3.10;99.90
25024;DHT22;13033;50.936;5.334;2023-03-03T01:50:29;2.90;99.90
25024;DHT22;13033;50.936;5.334;2023-03-03T01:52:58;3.00;99.90
25024;DHT22;13033;50.936;5.334;2023-03-03T01:55:29;2.90;99.90
25024;DHT22;13033;50.936;5.334;2023-03-03T01:58:15;2.70;99.90
25024;DHT22;13033;50.936;5.334;2023-03-03T02:00:45;2.50;99.90
25024;DHT22;13033;50.936;5.334;2023-03-03T02:03:13;2.60;99.90
25024;DHT22;13033;50.936;5.334;2023-03-03T02:05:40;2.40;99.90
25024;DHT22;13033;50.936;5.334;2023-03-03T02:08:08;2.40;99.90
25024;DHT22;13033;50.936;5.334;2023-03-03T02:10:37;2.40;99.90
25024;DHT22;13033;50.936;5.334;2023-03-03T02:13:02;2.30;99.90
25024;DHT22;13033;50.936;5.334;2023-03-03T02:15:31;2.40;99.90
25024;DHT22;13033;50.936;5.334;2023-03-03T02:18:01;2.50;99.90
25024;DHT22;13033;50.936;5.334;2023-03-03T02:20:58;2.50;99.90
25024;DHT22;13033;50.936;5.334;2023-03-03T02:26:19;2.60;99.90
25024;DHT22;13033;50.936;5.334;2023-03-03T02:28:47;2.60;99.90
25024;DHT22;13033;50.936;5.334;2023-03-03T02:31:16;2.50;99.90
25024;DHT22;13033;50.936;5.334;2023-03-03T02:33:45;2.40;99.90
25024;DHT22;13033;50.936;5.334;2023-03-03T02:36:12;2.40;99.90
25024;DHT22;13033;50.936;5.334;2023-03-03T02:39:06;2.30;99.90
25024;DHT22;13033;50.936;5.334;2023-03-03T02:44:24;2.60;99.90
25024;DHT22;13033;50.936;5.334;2023-03-03T02:46:51;2.80;99.90
25024;DHT22;13033;50.936;5.334;2023-03-03T02:49:19;2.70;99.90
25024;DHT22;13033;50.936;5.334;2023-03-03T02:51:46;2.90;99.90
25024;DHT22;13033;50.936;5.334;2023-03-03T02:54:13;2.90;99.90
25024;DHT22;13033;50.936;5.334;2023-03-03T02:56:40;2.80;99.90
25024;DHT22;13033;50.936;5.334;2023-03-03T02:59:06;2.70;99.90
25024;DHT22;13033;50.936;5.334;2023-03-03T03:01:32;2.60;99.90
25024;DHT22;13033;50.936;5.334;2023-03-03T03:04:13;2.60;99.90
25024;DHT22;13033;50.936;5.334;2023-03-03T03:06:39;2.50;99.90
25024;DHT22;13033;50.936;5.334;2023-03-03T03:09:06;2.40;99.90
25024;DHT22;13033;50.936;5.334;2023-03-03T03:11:32;2.40;99.90
25024;DHT22;13033;50.936;5.334;2023-03-03T03:14:00;2.40;99.90
25024;DHT22;13033;50.936;5.334;2023-03-03T03:16:26;2.40;99.90
25024;DHT22;13033;50.936;5.334;2023-03-03T03:18:52;2.40;99.90
25024;DHT22;13033;50.936;5.334;2023-03-03T03:21:17;2.40;99.90
25024;DHT22;13033;50.936;5.334;2023-03-03T03:23:43;2.40;99.90
25024;DHT22;13033;50.936;5.334;2023-03-03T03:26:10;2.50;99.90
25024;DHT22;13033;50.936;5.334;2023-03-03T03:28:35;2.50;99.90
25024;DHT22;13033;50.936;5.334;2023-03-03T03:31:02;2.40;99.90
25024;DHT22;13033;50.936;5.334;2023-03-03T03:33:28;2.20;99.90
25024;DHT22;13033;50.936;5.334;2023-03-03T03:35:54;2.20;99.90
25024;DHT22;13033;50.936;5.334;2023-03-03T03:38:21;2.20;99.90
25024;DHT22;13033;50.936;5.334;2023-03-03T03:40:47;2.10;99.90
25024;DHT22;13033;50.936;5.334;2023-03-03T03:43:13;2.00;99.90
25024;DHT22;13033;50.936;5.334;2023-03-03T03:45:41;2.00;99.90
25024;DHT22;13033;50.936;5.334;2023-03-03T03:48:07;2.10;99.90
25024;DHT22;13033;50.936;5.334;2023-03-03T03:50:34;2.20;99.90
25024;DHT22;13033;50.936;5.334;2023-03-03T03:53:00;2.30;99.90
25024;DHT22;13033;50.936;5.334;2023-03-03T03:55:26;2.30;99.90
25024;DHT22;13033;50.936;5.334;2023-03-03T03:57:51;2.50;99.90
25024;DHT22;13033;50.936;5.334;2023-03-03T04:00:17;2.40;99.90
25024;DHT22;13033;50.936;5.334;2023-03-03T04:02:43;2.30;99.90
25024;DHT22;13033;50.936;5.334;2023-03-03T04:05:08;2.40;99.90
25024;DHT22;13033;50.936;5.334;2023-03-03T04:07:34;2.20;99.90
25024;DHT22;13033;50.936;5.334;2023-03-03T04:10:00;2.10;99.90
25024;DHT22;13033;50.936;5.334;2023-03-03T04:12:25;2.10;99.90
25024;DHT22;13033;50.936;5.334;2023-03-03T04:14:51;2.10;99.90
25024;DHT22;13033;50.936;5.334;2023-03-03T04:17:21;2.20;99.90
25024;DHT22;13033;50.936;5.334;2023-03-03T04:19:48;2.30;99.90
25024;DHT22;13033;50.936;5.334;2023-03-03T04:22:14;2.20;99.90
25024;DHT22;13033;50.936;5.334;2023-03-03T04:24:40;2.20;99.90
25024;DHT22;13033;50.936;5.334;2023-03-03T04:27:06;2.30;99.90
25024;DHT22;13033;50.936;5.334;2023-03-03T04:29:34;2.50;99.90
25024;DHT22;13033;50.936;5.334;2023-03-03T04:31:59;2.70;99.90
25024;DHT22;13033;50.936;5.334;2023-03-03T04:34:25;2.80;99.90
25024;DHT22;13033;50.936;5.334;2023-03-03T04:36:51;2.60;99.90
25024;DHT22;13033;50.936;5.334;2023-03-03T04:39:16;2.50;99.90
25024;DHT22;13033;50.936;5.334;2023-03-03T04:41:42;2.30;99.90
25024;DHT22;13033;50.936;5.334;2023-03-03T04:44:08;2.30;99.90
25024;DHT22;13033;50.936;5.334;2023-03-03T04:46:33;2.20;99.90
25024;DHT22;13033;50.936;5.334;2023-03-03T04:48:59;2.20;99.90
25024;DHT22;13033;50.936;5.334;2023-03-03T04:51:25;2.20;99.90
25024;DHT22;13033;50.936;5.334;2023-03-03T04:53:50;2.00;99.90
25024;DHT22;13033;50.936;5.334;2023-03-03T04:56:16;2.00;99.90
25024;DHT22;13033;50.936;5.334;2023-03-03T04:58:42;1.90;99.90
25024;DHT22;13033;50.936;5.334;2023-03-03T05:01:12;1.90;99.90
25024;DHT22;13033;50.936;5.334;2023-03-03T05:03:38;1.80;99.90
25024;DHT22;13033;50.936;5.334;2023-03-03T05:06:03;1.90;99.90
25024;DHT22;13033;50.936;5.334;2023-03-03T05:08:29;1.80;99.90
25024;DHT22;13033;50.936;5.334;2023-03-03T05:10:55;1.90;99.90
25024;DHT22;13033;50.936;5.334;2023-03-03T05:13:21;2.00;99.90
25024;DHT22;13033;50.936;5.334;2023-03-03T05:15:51;2.10;99.90
25024;DHT22;13033;50.936;5.334;2023-03-03T05:18:18;2.10;99.90
25024;DHT22;13033;50.936;5.334;2023-03-03T05:20:44;2.20;99.90
25024;DHT22;13033;50.936;5.334;2023-03-03T05:23:09;2.20;99.90
25024;DHT22;13033;50.936;5.334;2023-03-03T05:25:35;2.20;99.90
25024;DHT22;13033;50.936;5.334;2023-03-03T05:28:01;2.20;99.90
25024;DHT22;13033;50.936;5.334;2023-03-03T05:30:28;2.30;99.90
25024;DHT22;13033;50.936;5.334;2023-03-03T05:32:53;2.30;99.90
25024;DHT22;13033;50.936;5.334;2023-03-03T05:35:19;2.40;99.90
25024;DHT22;13033;50.936;5.334;2023-03-03T05:37:45;2.40;99.90
25024;DHT22;13033;50.936;5.334;2023-03-03T05:40:13;2.40;99.90
25024;DHT22;13033;50.936;5.334;2023-03-03T05:42:39;2.20;99.90
25024;DHT22;13033;50.936;5.334;2023-03-03T05:45:05;2.00;99.90
25024;DHT22;13033;50.936;5.334;2023-03-03T05:47:31;1.90;99.90
25024;DHT22;13033;50.936;5.334;2023-03-03T05:49:57;1.80;99.90
25024;DHT22;13033;50.936;5.334;2023-03-03T05:52:22;1.80;99.90
25024;DHT22;13033;50.936;5.334;2023-03-03T05:54:49;1.80;99.90
25024;DHT22;13033;50.936;5.334;2023-03-03T05:57:14;1.90;99.90
25024;DHT22;13033;50.936;5.334;2023-03-03T05:59:40;2.00;99.90
25024;DHT22;13033;50.936;5.334;2023-03-03T06:02:06;1.90;99.90
25024;DHT22;13033;50.936;5.334;2023-03-03T06:04:32;1.80;99.90
25024;DHT22;13033;50.936;5.334;2023-03-03T06:06:58;1.70;99.90
25024;DHT22;13033;50.936;5.334;2023-03-03T06:09:24;1.90;99.90
25024;DHT22;13033;50.936;5.334;2023-03-03T06:11:51;1.70;99.90
25024;DHT22;13033;50.936;5.334;2023-03-03T06:14:18;1.80;99.90
25024;DHT22;13033;50.936;5.334;2023-03-03T06:16:46;1.90;99.90
25024;DHT22;13033;50.936;5.334;2023-03-03T06:19:11;2.10;99.90
25024;DHT22;13033;50.936;5.334;2023-03-03T06:21:37;2.20;99.90
25024;DHT22;13033;50.936;5.334;2023-03-03T06:24:03;2.10;99.90
25024;DHT22;13033;50.936;5.334;2023-03-03T06:26:29;2.10;99.90
25024;DHT22;13033;50.936;5.334;2023-03-03T06:28:55;2.00;99.90
25024;DHT22;13033;50.936;5.334;2023-03-03T06:31:20;2.00;99.90
25024;DHT22;13033;50.936;5.334;2023-03-03T06:33:46;2.00;99.90
25024;DHT22;13033;50.936;5.334;2023-03-03T06:36:12;1.90;99.90
25024;DHT22;13033;50.936;5.334;2023-03-03T06:38:37;1.90;99.90
25024;DHT22;13033;50.936;5.334;2023-03-03T06:41:03;2.20;99.90
25024;DHT22;13033;50.936;5.334;2023-03-03T06:43:32;2.20;99.90
25024;DHT22;13033;50.936;5.334;2023-03-03T06:45:58;2.30;99.90
25024;DHT22;13033;50.936;5.334;2023-03-03T06:48:24;2.40;99.90
25024;DHT22;13033;50.936;5.334;2023-03-03T06:50:49;2.50;99.90
25024;DHT22;13033;50.936;5.334;2023-03-03T06:53:16;2.60;99.90
25024;DHT22;13033;50.936;5.334;2023-03-03T06:55:43;2.60;99.90
25024;DHT22;13033;50.936;5.334;2023-03-03T06:58:14;2.50;99.90
25024;DHT22;13033;50.936;5.334;2023-03-03T07:00:46;2.50;99.90
25024;DHT22;13033;50.936;5.334;2023-03-03T07:03:17;2.20;99.90
25024;DHT22;13033;50.936;5.334;2023-03-03T07:05:44;2.30;99.90
25024;DHT22;13033;50.936;5.334;2023-03-03T07:08:15;2.10;99.90
25024;DHT22;13033;50.936;5.334;2023-03-03T07:10:41;2.00;99.90
25024;DHT22;13033;50.936;5.334;2023-03-03T07:13:28;2.10;99.90
25024;DHT22;13033;50.936;5.334;2023-03-03T07:15:56;2.20;99.90
25024;DHT22;13033;50.936;5.334;2023-03-03T07:23:56;1.80;99.90
25024;DHT22;13033;50.936;5.334;2023-03-03T07:26:28;1.70;99.90
25024;DHT22;13033;50.936;5.334;2023-03-03T07:29:23;1.80;99.90
25024;DHT22;13033;50.936;5.334;2023-03-03T07:31:51;1.80;99.90
25024;DHT22;13033;50.936;5.334;2023-03-03T07:36:49;1.90;99.90
25024;DHT22;13033;50.936;5.334;2023-03-03T07:41:42;1.80;99.90
25024;DHT22;13033;50.936;5.334;2023-03-03T07:44:14;1.70;99.90
25024;DHT22;13033;50.936;5.334;2023-03-03T07:46:46;1.80;99.90
25024;DHT22;13033;50.936;5.334;2023-03-03T07:51:56;2.00;99.90
25024;DHT22;13033;50.936;5.334;2023-03-03T07:54:34;2.20;99.90
25024;DHT22;13033;50.936;5.334;2023-03-03T07:57:25;2.10;99.90
25024;DHT22;13033;50.936;5.334;2023-03-03T08:02:46;2.10;99.90
25024;DHT22;13033;50.936;5.334;2023-03-03T08:05:34;2.20;99.90
25024;DHT22;13033;50.936;5.334;2023-03-03T08:10:54;2.20;99.90
25024;DHT22;13033;50.936;5.334;2023-03-03T08:13:36;2.50;99.90
25024;DHT22;13033;50.936;5.334;2023-03-03T08:18:54;2.50;99.90
25024;DHT22;13033;50.936;5.334;2023-03-03T08:21:24;2.30;99.90
25024;DHT22;13033;50.936;5.334;2023-03-03T08:24:00;2.30;99.90
25024;DHT22;13033;50.936;5.334;2023-03-03T08:26:26;2.20;99.90
25024;DHT22;13033;50.936;5.334;2023-03-03T08:28:52;2.30;99.90
25024;DHT22;13033;50.936;5.334;2023-03-03T08:31:19;2.30;99.90
25024;DHT22;13033;50.936;5.334;2023-03-03T08:33:52;2.10;99.90
25024;DHT22;13033;50.936;5.334;2023-03-03T08:36:18;2.10;99.90
25024;DHT22;13033;50.936;5.334;2023-03-03T08:38:43;2.30;99.90
25024;DHT22;13033;50.936;5.334;2023-03-03T08:41:10;2.50;99.90
25024;DHT22;13033;50.936;5.334;2023-03-03T08:43:35;2.40;99.90
25024;DHT22;13033;50.936;5.334;2023-03-03T08:46:03;2.40;99.90
25024;DHT22;13033;50.936;5.334;2023-03-03T08:48:30;2.40;99.90
25024;DHT22;13033;50.936;5.334;2023-03-03T08:50:56;2.50;99.90
25024;DHT22;13033;50.936;5.334;2023-03-03T08:53:23;2.60;99.90
25024;DHT22;13033;50.936;5.334;2023-03-03T08:55:49;2.50;99.90
25024;DHT22;13033;50.936;5.334;2023-03-03T08:58:16;2.50;99.90
25024;DHT22;13033;50.936;5.334;2023-03-03T09:00:42;2.50;99.90
25024;DHT22;13033;50.936;5.334;2023-03-03T09:03:08;2.60;99.90
25024;DHT22;13033;50.936;5.334;2023-03-03T09:05:36;2.70;99.90
25024;DHT22;13033;50.936;5.334;2023-03-03T09:08:03;2.70;99.90
25024;DHT22;13033;50.936;5.334;2023-03-03T09:10:29;2.70;99.90
25024;DHT22;13033;50.936;5.334;2023-03-03T09:12:59;2.60;99.90
25024;DHT22;13033;50.936;5.334;2023-03-03T09:15:43;2.70;99.90
25024;DHT22;13033;50.936;5.334;2023-03-03T09:20:42;2.90;99.90
25024;DHT22;13033;50.936;5.334;2023-03-03T09:23:28;3.00;99.90
25024;DHT22;13033;50.936;5.334;2023-03-03T09:25:56;2.80;99.90
25024;DHT22;13033;50.936;5.334;2023-03-03T09:28:26;3.00;99.90
25024;DHT22;13033;50.936;5.334;2023-03-03T09:30:58;3.20;99.90
25024;DHT22;13033;50.936;5.334;2023-03-03T09:35:53;3.10;99.90
25024;DHT22;13033;50.936;5.334;2023-03-03T09:38:31;3.30;99.90
25024;DHT22;13033;50.936;5.334;2023-03-03T09:46:51;3.40;99.90
25024;DHT22;13033;50.936;5.334;2023-03-03T09:49:36;3.20;99.90
25024;DHT22;13033;50.936;5.334;2023-03-03T09:52:21;3.20;99.90
25024;DHT22;13033;50.936;5.334;2023-03-03T09:57:24;3.50;99.90
25024;DHT22;13033;50.936;5.334;2023-03-03T10:01:06;3.70;99.90
25024;DHT22;13033;50.936;5.334;2023-03-03T10:08:47;4.00;99.90
25024;DHT22;13033;50.936;5.334;2023-03-03T10:11:53;3.80;99.90
25024;DHT22;13033;50.936;5.334;2023-03-03T10:20:34;3.60;99.90
25024;DHT22;13033;50.936;5.334;2023-03-03T10:30:36;4.10;99.90
25024;DHT22;13033;50.936;5.334;2023-03-03T10:33:24;4.00;99.90
25024;DHT22;13033;50.936;5.334;2023-03-03T10:49:48;4.10;99.90
25024;DHT22;13033;50.936;5.334;2023-03-03T11:00:58;4.10;99.90
25024;DHT22;13033;50.936;5.334;2023-03-03T11:15:20;4.30;99.90
25024;DHT22;13033;50.936;5.334;2023-03-03T11:24:25;4.60;99.90
25024;DHT22;13033;50.936;5.334;2023-03-03T11:29:42;5.00;99.90
25024;DHT22;13033;50.936;5.334;2023-03-03T11:35:26;5.10;99.90
25024;DHT22;13033;50.936;5.334;2023-03-03T11:40:54;5.50;99.90
25024;DHT22;13033;50.936;5.334;2023-03-03T11:43:26;5.80;99.90
25024;DHT22;13033;50.936;5.334;2023-03-03T11:46:03;6.10;99.90
25024;DHT22;13033;50.936;5.334;2023-03-03T11:48:42;5.90;99.90
25024;DHT22;13033;50.936;5.334;2023-03-03T11:53:57;5.90;99.90
25024;DHT22;13033;50.936;5.334;2023-03-03T11:56:32;6.00;99.90
25024;DHT22;13033;50.936;5.334;2023-03-03T11:59:02;5.80;99.90
25024;DHT22;13033;50.936;5.334;2023-03-03T12:01:56;5.80;99.90
25024;DHT22;13033;50.936;5.334;2023-03-03T12:07:58;6.00;99.90
25024;DHT22;13033;50.936;5.334;2023-03-03T12:10:52;6.40;99.90
25024;DHT22;13033;50.936;5.334;2023-03-03T12:16:10;6.70;99.90
25024;DHT22;13033;50.936;5.334;2023-03-03T12:19:11;6.60;99.90
25024;DHT22;13033;50.936;5.334;2023-03-03T12:22:36;6.60;99.90
25024;DHT22;13033;50.936;5.334;2023-03-03T12:28:14;6.20;99.90
25024;DHT22;13033;50.936;5.334;2023-03-03T12:31:14;6.20;99.90
25024;DHT22;13033;50.936;5.334;2023-03-03T12:33:58;6.10;99.90
25024;DHT22;13033;50.936;5.334;2023-03-03T12:36:49;6.00;99.90
25024;DHT22;13033;50.936;5.334;2023-03-03T12:42:24;6.20;99.90
25024;DHT22;13033;50.936;5.334;2023-03-03T12:48:08;6.50;99.90
25024;DHT22;13033;50.936;5.334;2023-03-03T12:50:36;6.30;99.90
25024;DHT22;13033;50.936;5.334;2023-03-03T12:55:56;6.50;99.90
25024;DHT22;13033;50.936;5.334;2023-03-03T13:01:39;6.80;99.90
25024;DHT22;13033;50.936;5.334;2023-03-03T13:07:05;6.80;99.90
25024;DHT22;13033;50.936;5.334;2023-03-03T13:09:44;6.70;99.90
25024;DHT22;13033;50.936;5.334;2023-03-03T13:18:30;7.20;99.90
25024;DHT22;13033;50.936;5.334;2023-03-03T13:21:17;7.30;99.90
25024;DHT22;13033;50.936;5.334;2023-03-03T13:26:57;7.80;99.90
25024;DHT22;13033;50.936;5.334;2023-03-03T13:29:26;7.60;99.90
25024;DHT22;13033;50.936;5.334;2023-03-03T13:32:16;7.50;99.90
25024;DHT22;13033;50.936;5.334;2023-03-03T13:35:06;7.40;99.90
25024;DHT22;13033;50.936;5.334;2023-03-03T13:37:43;7.20;99.90
25024;DHT22;13033;50.936;5.334;2023-03-03T13:40:17;7.10;99.90
25024;DHT22;13033;50.936;5.334;2023-03-03T13:43:18;7.10;99.90
25024;DHT22;13033;50.936;5.334;2023-03-03T14:00:20;7.70;99.90
25024;DHT22;13033;50.936;5.334;2023-03-03T14:02:59;7.60;99.90
25024;DHT22;13033;50.936;5.334;2023-03-03T14:05:40;7.60;99.90
25024;DHT22;13033;50.936;5.334;2023-03-03T14:11:16;7.90;99.90
25024;DHT22;13033;50.936;5.334;2023-03-03T14:16:57;7.90;99.90
25024;DHT22;13033;50.936;5.334;2023-03-03T14:19:31;7.90;99.90
25024;DHT22;13033;50.936;5.334;2023-03-03T14:24:31;7.30;99.90
25024;DHT22;13033;50.936;5.334;2023-03-03T14:27:00;7.40;99.90
25024;DHT22;13033;50.936;5.334;2023-03-03T14:29:31;7.50;99.90
25024;DHT22;13033;50.936;5.334;2023-03-03T14:32:02;7.70;99.90
25024;DHT22;13033;50.936;5.334;2023-03-03T14:34:44;7.80;99.90
25024;DHT22;13033;50.936;5.334;2023-03-03T14:40:06;7.90;99.90
25024;DHT22;13033;50.936;5.334;2023-03-03T14:45:36;8.00;99.90
25024;DHT22;13033;50.936;5.334;2023-03-03T14:48:23;7.90;99.90
25024;DHT22;13033;50.936;5.334;2023-03-03T14:50:50;8.10;99.90
25024;DHT22;13033;50.936;5.334;2023-03-03T14:53:22;8.10;99.90
25024;DHT22;13033;50.936;5.334;2023-03-03T14:56:23;8.20;99.90
25024;DHT22;13033;50.936;5.334;2023-03-03T14:58:51;8.20;99.90
25024;DHT22;13033;50.936;5.334;2023-03-03T15:01:29;8.30;99.90
25024;DHT22;13033;50.936;5.334;2023-03-03T15:04:02;8.10;99.90
25024;DHT22;13033;50.936;5.334;2023-03-03T15:06:34;8.40;99.90
25024;DHT22;13033;50.936;5.334;2023-03-03T15:11:51;10.70;99.90
25024;DHT22;13033;50.936;5.334;2023-03-03T15:14:20;11.70;99.90
25024;DHT22;13033;50.936;5.334;2023-03-03T15:16:47;12.30;99.90
25024;DHT22;13033;50.936;5.334;2023-03-03T15:22:46;12.70;99.90
25024;DHT22;13033;50.936;5.334;2023-03-03T15:33:45;14.20;99.90
25024;DHT22;13033;50.936;5.334;2023-03-03T15:41:39;12.90;99.90
25024;DHT22;13033;50.936;5.334;2023-03-03T15:44:12;12.90;99.90
25024;DHT22;13033;50.936;5.334;2023-03-03T15:50:02;13.80;99.90
25024;DHT22;13033;50.936;5.334;2023-03-03T16:03:13;14.90;97.70
25024;DHT22;13033;50.936;5.334;2023-03-03T16:05:54;14.80;97.30
25024;DHT22;13033;50.936;5.334;2023-03-03T16:11:31;15.10;97.10
25024;DHT22;13033;50.936;5.334;2023-03-03T16:27:42;14.30;96.60
25024;DHT22;13033;50.936;5.334;2023-03-03T16:32:50;14.00;97.20
25024;DHT22;13033;50.936;5.334;2023-03-03T16:35:20;13.20;97.90
25024;DHT22;13033;50.936;5.334;2023-03-03T16:45:47;9.80;99.90
25024;DHT22;13033;50.936;5.334;2023-03-03T16:53:40;9.00;99.90
25024;DHT22;13033;50.936;5.334;2023-03-03T16:59:33;8.50;99.90
25024;DHT22;13033;50.936;5.334;2023-03-03T17:04:46;8.10;99.90
25024;DHT22;13033;50.936;5.334;2023-03-03T17:13:24;7.60;99.90
25024;DHT22;13033;50.936;5.334;2023-03-03T17:16:13;7.30;99.90
25024;DHT22;13033;50.936;5.334;2023-03-03T17:24:18;7.20;99.90
25024;DHT22;13033;50.936;5.334;2023-03-03T17:26:54;7.10;99.90
25024;DHT22;13033;50.936;5.334;2023-03-03T17:40:46;6.70;99.90
25024;DHT22;13033;50.936;5.334;2023-03-03T17:45:48;6.70;99.90
25024;DHT22;13033;50.936;5.334;2023-03-03T17:48:51;6.70;99.90
25024;DHT22;13033;50.936;5.334;2023-03-03T17:51:34;6.60;99.90
25024;DHT22;13033;50.936;5.334;2023-03-03T17:56:41;6.60;99.90
25024;DHT22;13033;50.936;5.334;2023-03-03T18:05:14;6.60;99.90
25024;DHT22;13033;50.936;5.334;2023-03-03T18:16:23;5.80;99.90
25024;DHT22;13033;50.936;5.334;2023-03-03T18:19:11;5.80;99.90
25024;DHT22;13033;50.936;5.334;2023-03-03T18:22:06;5.80;99.90
25024;DHT22;13033;50.936;5.334;2023-03-03T18:24:52;5.70;99.90
25024;DHT22;13033;50.936;5.334;2023-03-03T18:40:58;5.10;99.90
25024;DHT22;13033;50.936;5.334;2023-03-03T18:49:09;5.00;99.90
25024;DHT22;13033;50.936;5.334;2023-03-03T18:57:11;4.90;99.90
25024;DHT22;13033;50.936;5.334;2023-03-03T18:59:38;5.00;99.90
25024;DHT22;13033;50.936;5.334;2023-03-03T19:02:11;5.00;99.90
25024;DHT22;13033;50.936;5.334;2023-03-03T19:15:58;4.60;99.90
25024;DHT22;13033;50.936;5.334;2023-03-03T19:18:27;4.80;99.90
25024;DHT22;13033;50.936;5.334;2023-03-03T19:21:20;4.70;99.90
25024;DHT22;13033;50.936;5.334;2023-03-03T19:31:48;4.50;99.90
25024;DHT22;13033;50.936;5.334;2023-03-03T19:37:04;4.40;99.90
25024;DHT22;13033;50.936;5.334;2023-03-03T19:45:13;4.50;99.90
25024;DHT22;13033;50.936;5.334;2023-03-03T19:55:42;4.50;99.90
25024;DHT22;13033;50.936;5.334;2023-03-03T19:58:24;4.60;99.90
25024;DHT22;13033;50.936;5.334;2023-03-03T20:01:00;4.60;99.90
25024;DHT22;13033;50.936;5.334;2023-03-03T20:09:25;4.60;99.90
25024;DHT22;13033;50.936;5.334;2023-03-03T20:14:58;4.70;99.90
25024;DHT22;13033;50.936;5.334;2023-03-03T20:25:28;5.20;99.90
25024;DHT22;13033;50.936;5.334;2023-03-03T20:28:37;5.10;99.90
25024;DHT22;13033;50.936;5.334;2023-03-03T20:31:05;5.30;99.90
25024;DHT22;13033;50.936;5.334;2023-03-03T20:33:51;5.00;99.90
25024;DHT22;13033;50.936;5.334;2023-03-03T20:39:08;5.00;99.90
25024;DHT22;13033;50.936;5.334;2023-03-03T20:44:15;4.90;99.90
25024;DHT22;13033;50.936;5.334;2023-03-03T20:47:14;4.90;99.90
25024;DHT22;13033;50.936;5.334;2023-03-03T20:55:23;4.90;99.90
25024;DHT22;13033;50.936;5.334;2023-03-03T21:03:34;4.90;99.90
25024;DHT22;13033;50.936;5.334;2023-03-03T21:08:46;5.00;99.90
25024;DHT22;13033;50.936;5.334;2023-03-03T21:11:42;4.90;99.90
25024;DHT22;13033;50.936;5.334;2023-03-03T21:14:16;4.90;99.90
25024;DHT22;13033;50.936;5.334;2023-03-03T21:16:43;4.80;99.90
25024;DHT22;13033;50.936;5.334;2023-03-03T21:19:11;4.90;99.90
25024;DHT22;13033;50.936;5.334;2023-03-03T21:21:43;5.10;99.90
25024;DHT22;13033;50.936;5.334;2023-03-03T21:24:12;5.00;99.90
25024;DHT22;13033;50.936;5.334;2023-03-03T21:26:57;5.00;99.90
25024;DHT22;13033;50.936;5.334;2023-03-03T21:29:28;5.00;99.90
25024;DHT22;13033;50.936;5.334;2023-03-03T21:31:56;4.90;99.90
25024;DHT22;13033;50.936;5.334;2023-03-03T21:34:24;4.90;99.90
25024;DHT22;13033;50.936;5.334;2023-03-03T21:36:50;4.90;99.90
25024;DHT22;13033;50.936;5.334;2023-03-03T21:39:30;5.00;99.90
25024;DHT22;13033;50.936;5.334;2023-03-03T21:42:08;4.80;99.90
25024;DHT22;13033;50.936;5.334;2023-03-03T21:47:13;4.80;99.90
25024;DHT22;13033;50.936;5.334;2023-03-03T21:49:43;5.00;99.90
25024;DHT22;13033;50.936;5.334;2023-03-03T21:52:10;5.10;99.90
25024;DHT22;13033;50.936;5.334;2023-03-03T21:54:36;5.20;99.90
25024;DHT22;13033;50.936;5.334;2023-03-03T21:57:02;5.10;99.90
25024;DHT22;13033;50.936;5.334;2023-03-03T21:59:28;4.90;99.90
25024;DHT22;13033;50.936;5.334;2023-03-03T22:01:53;4.90;99.90
25024;DHT22;13033;50.936;5.334;2023-03-03T22:04:19;5.30;99.90
25024;DHT22;13033;50.936;5.334;2023-03-03T22:06:45;5.00;99.90
25024;DHT22;13033;50.936;5.334;2023-03-03T22:09:10;5.00;99.90
25024;DHT22;13033;50.936;5.334;2023-03-03T22:11:36;5.00;99.90
25024;DHT22;13033;50.936;5.334;2023-03-03T22:14:04;5.00;99.90
25024;DHT22;13033;50.936;5.334;2023-03-03T22:16:30;5.10;99.90
25024;DHT22;13033;50.936;5.334;2023-03-03T22:18:56;5.20;99.90
25024;DHT22;13033;50.936;5.334;2023-03-03T22:21:22;5.10;99.90
25024;DHT22;13033;50.936;5.334;2023-03-03T22:23:48;5.20;99.90
25024;DHT22;13033;50.936;5.334;2023-03-03T22:26:13;5.30;99.90
25024;DHT22;13033;50.936;5.334;2023-03-03T22:28:39;5.20;99.90
25024;DHT22;13033;50.936;5.334;2023-03-03T22:31:05;5.30;99.90
25024;DHT22;13033;50.936;5.334;2023-03-03T22:33:31;5.10;99.90
25024;DHT22;13033;50.936;5.334;2023-03-03T22:35:57;5.20;99.90
25024;DHT22;13033;50.936;5.334;2023-03-03T22:38:23;5.10;99.90
25024;DHT22;13033;50.936;5.334;2023-03-03T22:40:50;4.90;99.90
25024;DHT22;13033;50.936;5.334;2023-03-03T22:43:16;4.90;99.90
25024;DHT22;13033;50.936;5.334;2023-03-03T22:45:42;4.90;99.90
25024;DHT22;13033;50.936;5.334;2023-03-03T22:48:09;5.20;99.90